Time;durP1;ratioP1;P1;durP2;ratioP2;P2;SDS_P1;SDS_P2;PMS_P1;PMS_P2;Temp;Humidity;BMP_temperature;BMP_pressure;BME280_temperature;BME280_humidity;BME280_pressure;Samples;Min_cycle;Max_cycle;Signal;HPM_P1;HPM_P2
2022/10/15 00:01:22;;;;;;;;;;;13.40;88.30;;;;;;5091903;28;19971;-88
2022/10/15 00:03:48;;;;;;;;;;;13.40;88.00;;;;;;5093051;28;19956;-88
2022/10/15 00:06:15;;;;;;;;;;;13.40;87.80;;;;;;5093065;28;20000;-88
2022/10/15 00:08:41;;;;;;;;;;;13.30;87.50;;;;;;5093136;28;19941;-88
2022/10/15 00:11:09;;;;;;;;;;;13.30;87.80;;;;;;5093209;28;19976;-88
2022/10/15 00:13:35;;;;;;;;;;;13.20;88.00;;;;;;5091786;28;19951;-88
2022/10/15 00:16:01;;;;;;;;;;;13.20;88.10;;;;;;5093016;28;19939;-88
2022/10/15 00:18:26;;;;;;;;;;;13.20;88.10;;;;;;5093049;28;19946;-88
2022/10/15 00:20:52;;;;;;;;;;;13.20;88.90;;;;;;5099557;28;19949;-88
2022/10/15 00:23:18;;;;;;;;;;;13.30;88.50;;;;;;5113171;28;20008;-88
2022/10/15 00:25:43;;;;;;;;;;;13.30;88.40;;;;;;5113333;28;20003;-88
2022/10/15 00:28:09;;;;;;;;;;;13.30;88.50;;;;;;5108639;28;20462;-88
2022/10/15 00:30:35;;;;;;;;;;;13.30;89.20;;;;;;5104141;28;19949;-88
2022/10/15 00:33:00;;;;;;;;;;;13.30;89.30;;;;;;5113234;28;19935;-88
2022/10/15 00:35:26;;;;;;;;;;;13.30;89.10;;;;;;5113309;28;20028;-88
2022/10/15 00:37:51;;;;;;;;;;;13.20;88.90;;;;;;5113751;28;19946;-88
2022/10/15 00:40:18;;;;;;;;;;;13.20;88.80;;;;;;5117116;28;19947;-88
2022/10/15 00:42:44;;;;;;;;;;;13.10;88.50;;;;;;5117104;28;19938;-88
2022/10/15 00:45:11;;;;;;;;;;;13.10;89.00;;;;;;5115679;28;19973;-88
2022/10/15 00:47:39;;;;;;;;;;;13.10;89.00;;;;;;5116376;28;19948;-88
2022/10/15 00:50:04;;;;;;;;;;;13.10;89.00;;;;;;5116883;28;19938;-88
2022/10/15 00:52:36;;;;;;;;;;;13.30;89.00;;;;;;5115369;28;19984;-88
2022/10/15 00:55:04;;;;;;;;;;;13.30;89.20;;;;;;5116779;28;19938;-88
2022/10/15 00:57:30;;;;;;;;;;;13.40;89.10;;;;;;5115430;28;19951;-88
2022/10/15 00:59:58;;;;;;;;;;;13.40;89.10;;;;;;5116687;28;19937;-88
2022/10/15 01:02:24;;;;;;;;;;;13.40;89.00;;;;;;5116643;28;19943;-88
2022/10/15 01:04:50;;;;;;;;;;;13.40;88.60;;;;;;5116634;28;19960;-88
2022/10/15 01:07:15;;;;;;;;;;;13.40;88.50;;;;;;5116579;28;19938;-88
2022/10/15 01:09:43;;;;;;;;;;;13.40;88.60;;;;;;5110128;28;19942;-88
2022/10/15 01:12:29;;;;;;;;;;;13.40;89.30;;;;;;5096040;28;19939;-88
2022/10/15 01:15:11;;;;;;;;;;;13.40;89.10;;;;;;5064460;28;19942;-88
2022/10/15 01:17:48;;;;;;;;;;;13.30;89.20;;;;;;5095952;28;19965;-88
2022/10/15 01:20:33;;;;;;;;;;;13.30;89.50;;;;;;5095835;28;19978;-88
2022/10/15 01:23:17;;;;;;;;;;;13.40;90.20;;;;;;5095722;28;20025;-87
2022/10/15 01:26:01;;;;;;;;;;;13.30;89.20;;;;;;5096059;28;19970;-88
2022/10/15 01:28:45;;;;;;;;;;;13.10;88.30;;;;;;5095666;28;20041;-88
2022/10/15 01:31:34;;;;;;;;;;;12.90;88.10;;;;;;5095762;28;20024;-88
2022/10/15 01:34:21;;;;;;;;;;;12.80;88.50;;;;;;5087173;28;19942;-88
2022/10/15 01:36:49;;;;;;;;;;;12.70;89.50;;;;;;5098023;28;19950;-87
2022/10/15 01:39:20;;;;;;;;;;;12.80;90.10;;;;;;5108170;28;19941;-88
2022/10/15 01:41:50;;;;;;;;;;;12.80;90.60;;;;;;5105523;28;19946;-88
2022/10/15 01:44:21;;;;;;;;;;;12.90;90.60;;;;;;5115811;28;19959;-88
2022/10/15 01:46:53;;;;;;;;;;;12.90;91.40;;;;;;5115814;27;20444;-88
2022/10/15 01:49:20;;;;;;;;;;;13.00;91.30;;;;;;5115439;28;20298;-89
2022/10/15 01:51:47;;;;;;;;;;;13.20;91.60;;;;;;5115597;28;19949;-88
2022/10/15 01:54:16;;;;;;;;;;;13.20;91.10;;;;;;5115641;28;19940;-88
2022/10/15 01:56:48;;;;;;;;;;;13.30;90.70;;;;;;5100448;27;19947;-88
2022/10/15 01:59:14;;;;;;;;;;;13.30;90.30;;;;;;5095400;28;19955;-88
2022/10/15 02:01:43;;;;;;;;;;;13.30;90.10;;;;;;5095148;28;19940;-88
2022/10/15 02:04:19;;;;;;;;;;;13.30;90.10;;;;;;5095226;28;20031;-88
2022/10/15 02:06:48;;;;;;;;;;;13.30;90.10;;;;;;5093698;28;19991;-88
2022/10/15 02:09:22;;;;;;;;;;;13.30;90.20;;;;;;5094995;28;20050;-88
2022/10/15 02:12:14;;;;;;;;;;;13.30;90.20;;;;;;5094972;28;19961;-88
2022/10/15 02:14:46;;;;;;;;;;;13.30;90.10;;;;;;5091604;28;19974;-88
2022/10/15 02:17:13;;;;;;;;;;;13.30;90.10;;;;;;5094795;28;19962;-88
2022/10/15 02:19:51;;;;;;;;;;;13.30;89.90;;;;;;5094716;28;19942;-88
2022/10/15 02:22:17;;;;;;;;;;;13.40;90.00;;;;;;5094487;28;19979;-88
2022/10/15 02:24:49;;;;;;;;;;;13.40;89.90;;;;;;5113222;28;19966;-88
2022/10/15 02:27:15;;;;;;;;;;;13.40;90.30;;;;;;5114983;28;19943;-88
2022/10/15 02:29:41;;;;;;;;;;;13.40;90.20;;;;;;5114935;28;19939;-88
2022/10/15 02:32:07;;;;;;;;;;;13.40;90.10;;;;;;5114888;28;20007;-88
2022/10/15 02:34:34;;;;;;;;;;;13.30;90.20;;;;;;5114823;28;20393;-87
2022/10/15 02:37:01;;;;;;;;;;;13.30;90.20;;;;;;5114800;28;19938;-88
2022/10/15 02:39:27;;;;;;;;;;;13.30;90.20;;;;;;5114716;28;20033;-88
2022/10/15 02:41:53;;;;;;;;;;;13.30;90.30;;;;;;5114699;28;20031;-88
2022/10/15 02:44:19;;;;;;;;;;;13.30;90.20;;;;;;5114819;28;20009;-88
2022/10/15 02:46:44;;;;;;;;;;;13.30;89.90;;;;;;5102914;28;20400;-88
2022/10/15 02:49:10;;;;;;;;;;;13.30;89.90;;;;;;5094227;28;19940;-88
2022/10/15 02:51:36;;;;;;;;;;;13.20;89.90;;;;;;5093988;28;19956;-88
2022/10/15 02:54:02;;;;;;;;;;;13.20;89.90;;;;;;5094065;28;19938;-88
2022/10/15 02:56:28;;;;;;;;;;;13.20;89.70;;;;;;5094082;28;19938;-88
2022/10/15 02:58:54;;;;;;;;;;;13.20;89.60;;;;;;5092758;28;19995;-88
2022/10/15 03:01:19;;;;;;;;;;;13.30;90.50;;;;;;5091867;28;19981;-88
2022/10/15 03:03:45;;;;;;;;;;;13.40;90.60;;;;;;5093919;28;19967;-88
2022/10/15 03:06:10;;;;;;;;;;;13.40;90.40;;;;;;5094145;28;20436;-88
2022/10/15 03:08:36;;;;;;;;;;;13.50;90.80;;;;;;5093896;28;20397;-88
2022/10/15 03:11:01;;;;;;;;;;;13.50;90.80;;;;;;5093797;28;19981;-88
2022/10/15 03:13:27;;;;;;;;;;;13.50;91.00;;;;;;5094019;28;19984;-88
2022/10/15 03:15:53;;;;;;;;;;;13.60;90.70;;;;;;5105484;28;19950;-88
2022/10/15 03:18:18;;;;;;;;;;;13.60;90.40;;;;;;5093769;28;20038;-88
2022/10/15 03:20:46;;;;;;;;;;;13.60;90.40;;;;;;5093681;28;19938;-88
2022/10/15 03:23:11;;;;;;;;;;;13.60;90.50;;;;;;5093475;28;19971;-88
2022/10/15 03:25:37;;;;;;;;;;;13.60;90.50;;;;;;5093560;28;19941;-88
2022/10/15 03:28:02;;;;;;;;;;;13.60;90.40;;;;;;5093513;28;19946;-88
2022/10/15 03:30:28;;;;;;;;;;;13.50;90.10;;;;;;5093790;28;19969;-88
2022/10/15 03:32:53;;;;;;;;;;;13.50;90.10;;;;;;5093682;28;19948;-88
2022/10/15 03:35:19;;;;;;;;;;;13.50;90.00;;;;;;5093528;28;19951;-88
2022/10/15 03:37:44;;;;;;;;;;;13.50;90.00;;;;;;5093410;28;20028;-88
2022/10/15 03:40:10;;;;;;;;;;;13.50;89.70;;;;;;5093434;28;19994;-88
2022/10/15 03:42:36;;;;;;;;;;;13.40;89.60;;;;;;5111072;28;19953;-88
2022/10/15 03:45:01;;;;;;;;;;;13.40;89.80;;;;;;5112414;28;19970;-88
2022/10/15 03:47:27;;;;;;;;;;;13.50;90.20;;;;;;5113774;28;19939;-88
2022/10/15 03:49:52;;;;;;;;;;;13.50;90.10;;;;;;5113686;28;19938;-88
2022/10/15 03:52:18;;;;;;;;;;;13.60;90.10;;;;;;5112149;28;19957;-88
2022/10/15 03:54:43;;;;;;;;;;;13.60;90.40;;;;;;5113632;28;20481;-88
2022/10/15 03:57:09;;;;;;;;;;;13.60;90.50;;;;;;5113580;28;19977;-88
2022/10/15 03:59:34;;;;;;;;;;;13.60;90.50;;;;;;5113603;28;19964;-88
2022/10/15 04:02:00;;;;;;;;;;;13.60;90.40;;;;;;5113534;28;19942;-88
2022/10/15 04:04:25;;;;;;;;;;;13.50;90.30;;;;;;5113506;28;19970;-88
2022/10/15 04:06:51;;;;;;;;;;;13.40;90.40;;;;;;5113599;28;19946;-88
2022/10/15 04:09:17;;;;;;;;;;;13.40;90.50;;;;;;5102985;28;19953;-88
2022/10/15 04:11:42;;;;;;;;;;;13.30;90.90;;;;;;5091847;28;19946;-88
2022/10/15 04:14:08;;;;;;;;;;;13.40;90.80;;;;;;5097086;28;20046;-88
2022/10/15 04:16:33;;;;;;;;;;;13.40;91.10;;;;;;5097116;28;20030;-88
2022/10/15 04:18:59;;;;;;;;;;;13.40;91.20;;;;;;5097153;28;20049;-88
2022/10/15 04:21:24;;;;;;;;;;;13.40;91.10;;;;;;5096778;28;19979;-88
2022/10/15 04:23:50;;;;;;;;;;;13.40;91.00;;;;;;5096995;28;19960;-89
2022/10/15 04:26:16;;;;;;;;;;;13.30;91.30;;;;;;5097020;28;19939;-88
2022/10/15 04:28:41;;;;;;;;;;;13.30;91.50;;;;;;5097014;28;19962;-89
2022/10/15 04:31:07;;;;;;;;;;;13.40;91.70;;;;;;5096895;28;19947;-88
2022/10/15 04:33:33;;;;;;;;;;;13.40;91.90;;;;;;5097062;28;19958;-88
2022/10/15 04:36:05;;;;;;;;;;;13.40;91.70;;;;;;5096677;28;19943;-88
2022/10/15 04:38:31;;;;;;;;;;;13.40;91.70;;;;;;5096755;28;20396;-87
2022/10/15 04:40:59;;;;;;;;;;;13.40;92.50;;;;;;5096726;28;19982;-89
2022/10/15 04:43:24;;;;;;;;;;;13.40;92.00;;;;;;5096838;28;19946;-88
2022/10/15 04:45:50;;;;;;;;;;;13.40;91.90;;;;;;5095240;28;19952;-89
2022/10/15 04:48:15;;;;;;;;;;;13.40;91.80;;;;;;5096556;28;19941;-88
2022/10/15 04:50:41;;;;;;;;;;;13.40;91.70;;;;;;5096391;28;19952;-88
2022/10/15 04:53:06;;;;;;;;;;;13.30;91.70;;;;;;5096330;28;19974;-88
2022/10/15 04:55:32;;;;;;;;;;;13.30;91.90;;;;;;5096446;28;20022;-88
2022/10/15 04:57:58;;;;;;;;;;;13.20;91.70;;;;;;5096620;28;20312;-88
2022/10/15 05:00:23;;;;;;;;;;;13.10;92.10;;;;;;5096024;28;19968;-88
2022/10/15 05:02:48;;;;;;;;;;;13.10;92.30;;;;;;5096175;28;19937;-88
2022/10/15 05:05:14;;;;;;;;;;;13.10;92.50;;;;;;5113205;28;19960;-89
2022/10/15 05:07:40;;;;;;;;;;;13.20;92.50;;;;;;5116529;28;20322;-88
2022/10/15 05:10:05;;;;;;;;;;;13.10;92.60;;;;;;5116156;28;19976;-89
2022/10/15 05:12:31;;;;;;;;;;;13.20;92.60;;;;;;5099778;28;20299;-89
2022/10/15 05:14:56;;;;;;;;;;;13.20;92.70;;;;;;5116421;28;19940;-88
2022/10/15 05:17:22;;;;;;;;;;;13.20;92.80;;;;;;5114276;28;19940;-89
2022/10/15 05:19:47;;;;;;;;;;;13.20;92.80;;;;;;5095928;28;19942;-88
2022/10/15 05:22:13;;;;;;;;;;;13.20;92.90;;;;;;5095773;28;19972;-89
2022/10/15 05:24:38;;;;;;;;;;;13.30;92.80;;;;;;5094671;28;19962;-89
2022/10/15 05:27:04;;;;;;;;;;;13.30;92.80;;;;;;5095759;28;19940;-88
2022/10/15 05:29:30;;;;;;;;;;;13.30;92.80;;;;;;5095440;28;20341;-90
2022/10/15 05:31:55;;;;;;;;;;;13.30;92.80;;;;;;5107083;28;20414;-88
2022/10/15 05:34:21;;;;;;;;;;;13.40;92.90;;;;;;5116021;28;19938;-89
2022/10/15 05:36:46;;;;;;;;;;;13.90;92.60;;;;;;5115459;28;19940;-89
2022/10/15 05:39:13;;;;;;;;;;;14.30;90.70;;;;;;5117412;28;20019;-92
2022/10/15 05:41:38;;;;;;;;;;;14.40;90.10;;;;;;5118292;28;20169;-88
2022/10/15 05:44:04;;;;;;;;;;;14.50;89.70;;;;;;5115501;28;20065;-88
2022/10/15 05:46:29;;;;;;;;;;;14.60;89.30;;;;;;5115336;28;20029;-88
2022/10/15 05:48:56;;;;;;;;;;;14.80;88.10;;;;;;5094139;28;19986;-87
2022/10/15 05:51:23;;;;;;;;;;;14.90;87.60;;;;;;5094025;28;19963;-92
2022/10/15 05:53:53;;;;;;;;;;;14.80;86.80;;;;;;5096595;28;19935;-91
2022/10/15 05:56:18;;;;;;;;;;;14.80;86.90;;;;;;5096402;28;19944;-94
2022/10/15 05:58:44;;;;;;;;;;;14.90;88.90;;;;;;5101728;28;19951;-91
2022/10/15 06:01:11;;;;;;;;;;;15.10;88.50;;;;;;5113752;28;19936;-91
2022/10/15 06:03:37;;;;;;;;;;;15.20;87.00;;;;;;5104308;28;19946;-95
2022/10/15 06:29:45;;;;;;;;;;;15.30;90.20;;;;;;5145831;27;19938;-89
2022/10/15 06:32:10;;;;;;;;;;;15.50;88.40;;;;;;5125538;27;19943;-89
2022/10/15 06:34:36;;;;;;;;;;;15.70;86.90;;;;;;5131478;27;19943;-89
2022/10/15 06:37:02;;;;;;;;;;;15.80;86.20;;;;;;5113878;27;20389;-89
2022/10/15 06:39:27;;;;;;;;;;;15.80;85.90;;;;;;5090506;28;19929;-89
2022/10/15 06:41:53;;;;;;;;;;;15.90;85.90;;;;;;5090512;28;19938;-89
2022/10/15 06:44:18;;;;;;;;;;;16.00;86.10;;;;;;5091484;28;19946;-89
2022/10/15 06:46:44;;;;;;;;;;;15.80;84.60;;;;;;5100520;28;19940;-89
2022/10/15 06:49:09;;;;;;;;;;;15.80;84.10;;;;;;5100696;28;20389;-88
2022/10/15 06:51:36;;;;;;;;;;;15.70;84.30;;;;;;5101364;28;20447;-89
2022/10/15 06:54:02;;;;;;;;;;;15.70;85.10;;;;;;5091474;28;19956;-88
2022/10/15 06:56:27;;;;;;;;;;;15.80;85.60;;;;;;5092088;28;19944;-89
2022/10/15 06:58:53;;;;;;;;;;;15.80;85.90;;;;;;5110481;28;20388;-89
2022/10/15 07:01:19;;;;;;;;;;;16.00;85.90;;;;;;5110463;28;19939;-89
2022/10/15 07:03:47;;;;;;;;;;;16.10;85.10;;;;;;5110410;28;19944;-89
2022/10/15 07:06:12;;;;;;;;;;;16.10;84.40;;;;;;5110373;28;20300;-89
2022/10/15 07:08:38;;;;;;;;;;;16.20;85.80;;;;;;5090044;28;19951;-89
2022/10/15 07:11:05;;;;;;;;;;;16.30;85.80;;;;;;5096282;28;19949;-89
2022/10/15 07:13:30;;;;;;;;;;;16.50;86.40;;;;;;5109818;28;19937;-89
2022/10/15 07:15:56;;;;;;;;;;;16.60;86.30;;;;;;5104200;28;19952;-89
2022/10/15 07:18:21;;;;;;;;;;;16.90;84.60;;;;;;5089813;28;20388;-89
2022/10/15 07:20:47;;;;;;;;;;;17.30;83.10;;;;;;5105763;28;19943;-89
2022/10/15 07:23:13;;;;;;;;;;;17.60;81.90;;;;;;5109795;28;19947;-89
2022/10/15 07:25:38;;;;;;;;;;;17.80;81.10;;;;;;5110053;28;20368;-89
2022/10/15 07:28:04;;;;;;;;;;;18.00;81.00;;;;;;5109305;28;19959;-89
2022/10/15 07:30:30;;;;;;;;;;;18.10;80.50;;;;;;5094961;28;19982;-89
2022/10/15 07:32:56;;;;;;;;;;;18.30;79.80;;;;;;5089329;28;19990;-89
2022/10/15 07:35:22;;;;;;;;;;;18.40;78.60;;;;;;5089376;28;20284;-89
2022/10/15 07:37:49;;;;;;;;;;;18.30;76.60;;;;;;5089396;28;19997;-89
2022/10/15 07:40:15;;;;;;;;;;;18.20;76.60;;;;;;5080856;28;20424;-89
2022/10/15 07:42:41;;;;;;;;;;;18.10;76.60;;;;;;5075691;28;20033;-89
2022/10/15 07:45:06;;;;;;;;;;;18.10;76.80;;;;;;5075785;28;20045;-89
2022/10/15 07:47:32;;;;;;;;;;;18.30;77.80;;;;;;5075764;28;19992;-89
2022/10/15 07:49:57;;;;;;;;;;;18.60;76.40;;;;;;5084741;28;19943;-89
2022/10/15 07:52:23;;;;;;;;;;;18.70;75.80;;;;;;5095723;28;19962;-89
2022/10/15 07:54:48;;;;;;;;;;;18.70;76.10;;;;;;5095920;28;20125;-89
2022/10/15 07:57:14;;;;;;;;;;;18.80;74.60;;;;;;5095845;28;19943;-89
2022/10/15 07:59:40;;;;;;;;;;;19.10;73.40;;;;;;5089367;28;19993;-89
2022/10/15 08:02:06;;;;;;;;;;;19.30;72.40;;;;;;5086365;28;20058;-89
2022/10/15 08:04:33;;;;;;;;;;;19.40;72.00;;;;;;5095566;28;19979;-88
2022/10/15 08:06:59;;;;;;;;;;;19.30;69.40;;;;;;5094685;28;19946;-89
2022/10/15 08:09:24;;;;;;;;;;;19.40;70.50;;;;;;5094793;28;19954;-89
2022/10/15 08:11:50;;;;;;;;;;;19.50;70.60;;;;;;5095299;28;19942;-89
2022/10/15 08:14:16;;;;;;;;;;;19.60;70.20;;;;;;5095677;28;19939;-88
2022/10/15 08:16:42;;;;;;;;;;;19.50;71.00;;;;;;5095248;28;19994;-89
2022/10/15 08:19:07;;;;;;;;;;;19.50;69.90;;;;;;5093526;28;19940;-88
2022/10/15 08:21:33;;;;;;;;;;;19.60;69.70;;;;;;5075027;28;19943;-88
2022/10/15 08:23:59;;;;;;;;;;;19.70;69.00;;;;;;5074159;28;19945;-88
2022/10/15 08:26:25;;;;;;;;;;;19.70;69.50;;;;;;5074443;28;19945;-88
2022/10/15 08:28:51;;;;;;;;;;;19.70;68.70;;;;;;5074216;28;19948;-88
2022/10/15 08:31:18;;;;;;;;;;;19.70;68.90;;;;;;5092894;28;20045;-88
2022/10/15 08:33:44;;;;;;;;;;;19.80;66.40;;;;;;5093630;28;19944;-88
2022/10/15 08:36:10;;;;;;;;;;;19.60;67.20;;;;;;5094970;28;20408;-88
2022/10/15 08:38:36;;;;;;;;;;;19.50;68.00;;;;;;5094835;28;20014;-88
2022/10/15 08:41:04;;;;;;;;;;;19.30;66.90;;;;;;5084757;28;19945;-88
2022/10/15 08:43:32;;;;;;;;;;;19.20;67.60;;;;;;5083518;28;19938;-88
2022/10/15 08:46:00;;;;;;;;;;;19.30;68.00;;;;;;5077185;28;19993;-88
2022/10/15 08:48:38;;;;;;;;;;;19.30;68.40;;;;;;5074445;28;20062;-88
2022/10/15 08:51:30;;;;;;;;;;;19.30;67.00;;;;;;5073221;28;20048;-88
2022/10/15 08:53:56;;;;;;;;;;;19.50;66.50;;;;;;5073386;28;20385;-88
2022/10/15 08:56:22;;;;;;;;;;;19.60;66.40;;;;;;5074162;28;20037;-89
2022/10/15 08:59:06;;;;;;;;;;;19.60;65.20;;;;;;5074169;28;19992;-88
2022/10/15 09:01:44;;;;;;;;;;;19.80;65.30;;;;;;5074516;28;19980;-89
2022/10/15 09:04:13;;;;;;;;;;;19.70;64.80;;;;;;5073389;28;19949;-88
2022/10/15 09:06:39;;;;;;;;;;;19.80;63.50;;;;;;5081126;28;19974;-88
2022/10/15 09:09:23;;;;;;;;;;;19.80;64.60;;;;;;5080546;28;19961;-88
2022/10/15 09:11:54;;;;;;;;;;;20.00;67.20;;;;;;5085423;28;19948;-88
2022/10/15 09:14:24;;;;;;;;;;;20.10;66.50;;;;;;5073658;28;19938;-88
2022/10/15 09:16:50;;;;;;;;;;;20.50;64.00;;;;;;5090269;28;19947;-88
2022/10/15 09:19:22;;;;;;;;;;;20.70;62.90;;;;;;5092248;28;19951;-88
2022/10/15 09:21:49;;;;;;;;;;;20.90;61.50;;;;;;5073882;28;19980;-88
2022/10/15 09:24:20;;;;;;;;;;;21.10;60.80;;;;;;5073835;28;20404;-88
2022/10/15 09:26:50;;;;;;;;;;;20.90;60.60;;;;;;5073808;28;20361;-88
2022/10/15 09:29:28;;;;;;;;;;;20.90;61.50;;;;;;5074514;28;19980;-88
2022/10/15 09:32:20;;;;;;;;;;;20.90;62.20;;;;;;5087501;28;19992;-88
2022/10/15 09:34:55;;;;;;;;;;;21.20;60.00;;;;;;5072381;28;19967;-88
2022/10/15 09:37:24;;;;;;;;;;;21.10;59.50;;;;;;5073597;28;19936;-88
2022/10/15 09:40:04;;;;;;;;;;;20.80;62.40;;;;;;5079226;28;20018;-88
2022/10/15 09:42:33;;;;;;;;;;;20.60;63.10;;;;;;5093593;28;19946;-87
2022/10/15 09:45:01;;;;;;;;;;;20.60;63.50;;;;;;5093406;28;19977;-87
2022/10/15 09:47:27;;;;;;;;;;;20.60;63.20;;;;;;5093549;28;19946;-87
2022/10/15 09:49:53;;;;;;;;;;;20.60;61.10;;;;;;5087461;28;19949;-87
2022/10/15 09:52:27;;;;;;;;;;;20.60;61.10;;;;;;5076939;28;20021;-88
2022/10/15 09:54:53;;;;;;;;;;;20.50;61.00;;;;;;5073324;28;19982;-87
2022/10/15 09:57:21;;;;;;;;;;;20.60;60.80;;;;;;5079120;28;20399;-87
2022/10/15 09:59:53;;;;;;;;;;;20.60;58.80;;;;;;5091785;28;19948;-87
2022/10/15 10:02:20;;;;;;;;;;;20.70;59.80;;;;;;5093297;28;19943;-88
2022/10/15 10:04:45;;;;;;;;;;;20.80;60.70;;;;;;5093669;28;19942;-88
2022/10/15 10:07:26;;;;;;;;;;;21.00;61.70;;;;;;5088083;28;20504;-88
2022/10/15 10:09:56;;;;;;;;;;;21.10;60.70;;;;;;5073229;28;19950;-88
2022/10/15 10:12:24;;;;;;;;;;;21.20;60.80;;;;;;5073137;28;20311;-88
2022/10/15 10:14:52;;;;;;;;;;;21.40;59.40;;;;;;5073069;28;19941;-88
2022/10/15 10:17:19;;;;;;;;;;;21.40;60.50;;;;;;5073372;28;19944;-88
2022/10/15 10:20:00;;;;;;;;;;;21.50;60.00;;;;;;5073051;28;20410;-88
2022/10/15 10:22:26;;;;;;;;;;;21.60;59.60;;;;;;5073075;28;19940;-88
2022/10/15 10:24:51;;;;;;;;;;;21.50;61.80;;;;;;5082471;28;19939;-87
2022/10/15 10:27:18;;;;;;;;;;;21.70;61.20;;;;;;5092847;28;19975;-88
2022/10/15 10:29:48;;;;;;;;;;;21.80;61.60;;;;;;5092799;28;20520;-88
2022/10/15 10:32:22;;;;;;;;;;;22.00;60.30;;;;;;5093119;28;19938;-87
2022/10/15 10:34:48;;;;;;;;;;;22.30;58.30;;;;;;5083841;28;20046;-88
2022/10/15 10:37:13;;;;;;;;;;;22.40;58.30;;;;;;5072819;28;20467;-88
2022/10/15 10:39:41;;;;;;;;;;;22.40;57.40;;;;;;5072825;28;20033;-88
2022/10/15 10:42:21;;;;;;;;;;;22.40;57.60;;;;;;5072675;28;20302;-88
2022/10/15 10:44:47;;;;;;;;;;;22.30;58.00;;;;;;5080028;28;19952;-88
2022/10/15 10:47:14;;;;;;;;;;;22.40;57.40;;;;;;5092993;28;20030;-88
2022/10/15 10:49:44;;;;;;;;;;;22.60;58.30;;;;;;5092894;28;19962;-88
2022/10/15 10:52:25;;;;;;;;;;;22.90;60.10;;;;;;5093008;28;19959;-88
2022/10/15 10:55:05;;;;;;;;;;;23.20;57.00;;;;;;5083858;28;19948;-88
2022/10/15 10:57:37;;;;;;;;;;;23.50;57.10;;;;;;5072959;28;19955;-89
2022/10/15 11:00:03;;;;;;;;;;;23.60;55.30;;;;;;5072779;28;19940;-88
2022/10/15 11:02:30;;;;;;;;;;;23.30;54.60;;;;;;5071330;28;19970;-88
2022/10/15 11:04:56;;;;;;;;;;;23.20;56.20;;;;;;5082004;28;20392;-88
2022/10/15 11:07:27;;;;;;;;;;;23.00;57.00;;;;;;5092859;28;20010;-88
2022/10/15 11:09:56;;;;;;;;;;;22.80;57.80;;;;;;5092829;28;19939;-87
2022/10/15 11:12:33;;;;;;;;;;;22.70;58.20;;;;;;5089529;28;19961;-88
2022/10/15 11:14:58;;;;;;;;;;;22.70;56.80;;;;;;5073762;28;20292;-88
2022/10/15 11:17:43;;;;;;;;;;;23.10;56.30;;;;;;5076314;28;20032;-88
2022/10/15 11:20:17;;;;;;;;;;;23.50;55.80;;;;;;5076269;28;20493;-88
2022/10/15 11:22:51;;;;;;;;;;;23.80;54.60;;;;;;5081556;28;20359;-88
2022/10/15 11:25:21;;;;;;;;;;;24.00;53.90;;;;;;5096385;28;20126;-89
2022/10/15 11:28:06;;;;;;;;;;;24.30;53.00;;;;;;5096125;28;19988;-88
2022/10/15 11:30:46;;;;;;;;;;;24.10;53.00;;;;;;5096572;28;20042;-88
2022/10/15 11:33:35;;;;;;;;;;;24.20;53.40;;;;;;5086661;28;19949;-88
2022/10/15 11:36:18;;;;;;;;;;;24.10;54.40;;;;;;5075938;28;19946;-88
2022/10/15 11:39:14;;;;;;;;;;;24.30;54.30;;;;;;5075944;28;19942;-88
2022/10/15 11:41:42;;;;;;;;;;;24.90;52.70;;;;;;5075820;28;20009;-88
2022/10/15 11:44:10;;;;;;;;;;;25.20;51.40;;;;;;5092528;28;20003;-88
2022/10/15 11:46:44;;;;;;;;;;;25.00;51.60;;;;;;5096398;28;20031;-88
2022/10/15 11:49:23;;;;;;;;;;;24.80;52.40;;;;;;5095908;28;19987;-88
2022/10/15 11:52:13;;;;;;;;;;;25.00;52.40;;;;;;5095730;28;19956;-88
2022/10/15 11:54:41;;;;;;;;;;;25.40;50.80;;;;;;5075656;28;19949;-88
2022/10/15 11:57:08;;;;;;;;;;;25.80;50.80;;;;;;5075871;28;19955;-88
2022/10/15 11:59:36;;;;;;;;;;;25.80;49.90;;;;;;5075515;28;19941;-88
2022/10/15 12:02:16;;;;;;;;;;;25.60;50.20;;;;;;5075483;28;20024;-88
2022/10/15 12:04:42;;;;;;;;;;;25.50;50.50;;;;;;5075413;28;20302;-88
2022/10/15 12:07:12;;;;;;;;;;;25.80;52.10;;;;;;5075393;28;19945;-88
2022/10/15 12:09:39;;;;;;;;;;;25.70;50.20;;;;;;5075236;28;19968;-88
2022/10/15 12:12:11;;;;;;;;;;;25.20;51.40;;;;;;5075375;28;19939;-88
2022/10/15 12:14:45;;;;;;;;;;;24.80;52.00;;;;;;5075194;28;19947;-88
2022/10/15 12:17:15;;;;;;;;;;;24.70;52.80;;;;;;5075299;28;19946;-88
2022/10/15 12:19:44;;;;;;;;;;;24.80;52.20;;;;;;5075446;28;19947;-88
2022/10/15 12:22:10;;;;;;;;;;;25.10;52.40;;;;;;5075464;28;19951;-88
2022/10/15 12:24:39;;;;;;;;;;;25.20;51.40;;;;;;5094808;28;20007;-88
2022/10/15 12:27:17;;;;;;;;;;;25.20;51.70;;;;;;5095165;28;20001;-88
2022/10/15 12:30:03;;;;;;;;;;;25.20;52.90;;;;;;5094933;28;19979;-88
2022/10/15 12:32:29;;;;;;;;;;;25.30;53.30;;;;;;5092751;28;19944;-88
2022/10/15 12:34:59;;;;;;;;;;;25.80;50.50;;;;;;5075178;28;19947;-88
2022/10/15 12:37:26;;;;;;;;;;;25.80;51.30;;;;;;5074778;28;19977;-88
2022/10/15 12:40:00;;;;;;;;;;;25.50;52.20;;;;;;5074789;28;20119;-88
2022/10/15 12:42:34;;;;;;;;;;;25.20;53.40;;;;;;5075702;28;19940;-88
2022/10/15 12:45:02;;;;;;;;;;;25.00;53.20;;;;;;5094921;28;19946;-88
2022/10/15 12:47:47;;;;;;;;;;;25.00;54.40;;;;;;5094817;28;20054;-88
2022/10/15 12:50:23;;;;;;;;;;;25.10;52.70;;;;;;5094829;28;19940;-88
2022/10/15 12:53:01;;;;;;;;;;;25.30;52.30;;;;;;5090121;28;20350;-88
2022/10/15 12:55:26;;;;;;;;;;;25.40;50.10;;;;;;5074486;28;20363;-88
2022/10/15 12:57:53;;;;;;;;;;;25.50;49.30;;;;;;5074351;28;19961;-88
2022/10/15 13:00:24;;;;;;;;;;;25.70;50.00;;;;;;5074390;28;20406;-88
2022/10/15 13:02:51;;;;;;;;;;;26.10;49.60;;;;;;5078353;28;19942;-88
2022/10/15 13:05:27;;;;;;;;;;;26.30;49.00;;;;;;5094309;28;19941;-88
2022/10/15 13:07:54;;;;;;;;;;;26.60;49.00;;;;;;5094490;28;19948;-88
2022/10/15 13:10:37;;;;;;;;;;;26.90;47.50;;;;;;5094484;28;19943;-88
2022/10/15 13:13:03;;;;;;;;;;;27.30;46.70;;;;;;5088268;28;19991;-89
2022/10/15 13:15:30;;;;;;;;;;;27.50;46.30;;;;;;5074084;28;19983;-88
2022/10/15 13:17:57;;;;;;;;;;;27.60;47.00;;;;;;5073988;28;20462;-89
2022/10/15 13:20:31;;;;;;;;;;;27.30;46.20;;;;;;5074041;28;20294;-88
2022/10/15 13:23:06;;;;;;;;;;;26.50;46.70;;;;;;5078537;28;20038;-88
2022/10/15 13:25:32;;;;;;;;;;;25.50;49.60;;;;;;5094474;28;20022;-88
2022/10/15 13:27:58;;;;;;;;;;;25.20;50.00;;;;;;5093993;28;20025;-88
2022/10/15 13:30:23;;;;;;;;;;;25.10;50.60;;;;;;5085473;28;20415;-88
2022/10/15 13:32:51;;;;;;;;;;;25.10;50.80;;;;;;5073796;28;20031;-88
2022/10/15 13:35:25;;;;;;;;;;;24.90;51.10;;;;;;5073705;28;20402;-89
2022/10/15 13:37:51;;;;;;;;;;;24.70;51.10;;;;;;5073161;28;20004;-89
2022/10/15 13:40:20;;;;;;;;;;;24.70;52.60;;;;;;5080280;28;20303;-89
2022/10/15 13:43:02;;;;;;;;;;;24.80;51.60;;;;;;5093877;28;20449;-89
2022/10/15 13:45:28;;;;;;;;;;;25.20;52.40;;;;;;5093842;28;20147;-89
2022/10/15 13:47:54;;;;;;;;;;;25.70;51.10;;;;;;5093437;28;19949;-88
2022/10/15 13:50:24;;;;;;;;;;;26.00;49.60;;;;;;5093785;28;20311;-89
2022/10/15 13:52:55;;;;;;;;;;;26.00;49.10;;;;;;5093629;28;19957;-89
2022/10/15 13:55:23;;;;;;;;;;;26.00;49.20;;;;;;5093979;28;20036;-89
2022/10/15 13:57:49;;;;;;;;;;;26.10;48.40;;;;;;5093063;28;20024;-89
2022/10/15 14:00:35;;;;;;;;;;;26.40;48.10;;;;;;5093672;28;19973;-89
2022/10/15 14:03:07;;;;;;;;;;;26.50;47.00;;;;;;5089966;28;20400;-89
2022/10/15 14:05:33;;;;;;;;;;;26.10;47.40;;;;;;5086109;28;19943;-89
2022/10/15 14:07:58;;;;;;;;;;;25.80;48.50;;;;;;5073324;28;19948;-89
2022/10/15 14:10:24;;;;;;;;;;;25.60;50.70;;;;;;5073277;28;19936;-89
2022/10/15 14:12:51;;;;;;;;;;;25.80;49.80;;;;;;5073777;28;19940;-88
2022/10/15 14:15:35;;;;;;;;;;;25.90;49.30;;;;;;5093713;28;19944;-88
2022/10/15 14:18:00;;;;;;;;;;;25.80;48.80;;;;;;5093158;28;19963;-88
2022/10/15 14:20:26;;;;;;;;;;;25.60;49.70;;;;;;5093312;28;19946;-89
2022/10/15 14:22:51;;;;;;;;;;;25.20;50.40;;;;;;5092721;28;19945;-89
2022/10/15 14:25:21;;;;;;;;;;;24.80;51.40;;;;;;5093376;28;20401;-88
2022/10/15 14:27:47;;;;;;;;;;;24.60;52.30;;;;;;5092443;22;19996;-89
2022/10/15 14:30:13;;;;;;;;;;;24.30;52.90;;;;;;5035231;28;20414;-89
2022/10/15 14:32:45;;;;;;;;;;;24.00;53.80;;;;;;5053063;28;20420;-89
2022/10/15 14:35:24;;;;;;;;;;;23.80;54.70;;;;;;5052154;28;20291;-89
2022/10/15 14:38:01;;;;;;;;;;;23.60;55.40;;;;;;5052897;28;19936;-88
2022/10/15 14:40:27;;;;;;;;;;;23.50;56.00;;;;;;5052950;28;19947;-89
2022/10/15 14:43:02;;;;;;;;;;;23.30;56.20;;;;;;5034780;28;19946;-89
2022/10/15 14:45:30;;;;;;;;;;;23.20;56.80;;;;;;5052928;28;19994;-89
2022/10/15 14:48:08;;;;;;;;;;;23.20;57.40;;;;;;5052909;28;19945;-89
2022/10/15 14:50:34;;;;;;;;;;;23.10;57.30;;;;;;5055010;28;19946;-89